首页
METAR-TAF:

METAR-TAF

机场 :

雷恩, 法国

纬度: 48-04N, 经度: 001-44W, 海拔: 37米

当前天气观测

该预报发布于19分钟前的13:30 UTC
风速9节,风向,在东北东转东南之间变化
温度 25°C
湿度 61%
气压 1009 hPa
能见度10公里或以上
1500米以下无云,无积雨云

METAR: LFRN 181330Z AUTO 08009KT 040V110 CAVOK 25/17 Q1009 TEMPO VRB15G30KT 3000 TSRA BKN060CB

时间: 15:49 (13:49 UTC)

预报

该预报发布于2小时和49分钟前的11:00 UTC
预报有效从18日的 12点(UTC)到 19日的 12点(UTC)
风速8节,风向东转东南
能见度10公里或以上
1500米以下无云,无积雨云
短暂存在
从 18日的 12点(UTC)到 18日的 18点(UTC)
能見度: 4000
多云层高于6000英尺, 积雨云.
阵雨
几率 40% :
短暂存在
从 18日的 15点(UTC)到 18日的 18点(UTC)
风速15节,风向多变,有时为30节阵风
能見度: 3000
雷暴, 雨
几率 30% :
短暂存在
从 18日的 15点(UTC)到 18日的 18点(UTC)
雷暴, 雨, 冰雹
几率 40% :
短暂存在
从 18日的 23点(UTC)到 19日的 03点(UTC)
能見度: 4000
多云层高于8000英尺, 塔状积云.
阵雨
成为
从 19日的 03点(UTC)到 19日的 05点(UTC)
风速10节,风向南转西南
多云层高于2000英尺
短暂存在
从 19日的 04点(UTC)到 19日的 08点(UTC)
多云层高于1300英尺
短暂存在
从 19日的 09点(UTC)到 19日的 12点(UTC)
能見度: 5000
多云层高于2000英尺, 塔状积云.
阵雨

TAF: LFRN 181100Z 1812/1912 11008KT CAVOK TEMPO 1812/1818 4000 SHRA BKN060CB PROB40 TEMPO 1815/1818 VRB15G30KT 3000 TSRA PROB30 TEMPO 1815/1818 TSRAGR PROB40 TEMPO 1823/1903 4000 SHRA BKN080TCU BECMG 1903/1905 21010KT BKN020 TEMPO 1904/1908 BKN013 TEMPO 1909/1912 5000 SHRA BKN020TCU

超过4000个机场的气象观测和天气预报(METAR&TAF报告)。

可查询的气象台以黄色和红色小点在地图上表示。

将鼠标移到小点上方,可查看气象台名称。

然后点击查看天气观测和预报。

如需切换地图:点击带黑十字的绿色按钮放大地图;点击带横线的绿色按钮缩小地图;或者点击绿色箭头查看邻近地区的地图。


METAR-TAF: